Time;durP1;ratioP1;P1;durP2;ratioP2;P2;SDS_P1;SDS_P2;PMS_P1;PMS_P2;Temp;Humidity;BMP_temperature;BMP_pressure;BME280_temperature;BME280_humidity;BME280_pressure;Samples;Min_cycle;Max_cycle;Signal;HPM_P1;HPM_P2
2022/05/31 00:00:25;;;;;;;1.05;0.93;;;;;;;;;;5052899;28;20036;-90
2022/05/31 00:02:51;;;;;;;0.90;0.90;;;;;;;;;;5052481;28;20041;-89
2022/05/31 00:05:17;;;;;;;2.03;1.00;;;;;;;;;;5052626;28;20423;-89
2022/05/31 00:07:43;;;;;;;1.77;1.10;;;;;;;;;;5035819;28;20037;-88
2022/05/31 00:10:10;;;;;;;2.53;1.23;;;;;;;;;;5052305;28;20037;-88
2022/05/31 00:12:36;;;;;;;1.20;1.10;;;;;;;;;;5052374;28;20075;-88
2022/05/31 00:15:02;;;;;;;1.20;1.10;;;;;;;;;;5052321;28;20037;-89
2022/05/31 00:17:28;;;;;;;0.90;0.90;;;;;;;;;;5035688;28;20131;-89
2022/05/31 00:19:53;;;;;;;1.02;0.95;;;;;;;;;;5053539;28;20103;-89
2022/05/31 00:22:21;;;;;;;1.85;0.98;;;;;;;;;;5052788;28;20377;-89
2022/05/31 00:24:47;;;;;;;3.92;1.20;;;;;;;;;;5053020;28;20029;-89
2022/05/31 00:27:15;;;;;;;1.55;0.90;;;;;;;;;;5053906;28;20108;-90
2022/05/31 00:29:40;;;;;;;0.90;0.90;;;;;;;;;;5052549;28;20040;-90
2022/05/31 00:32:09;;;;;;;0.85;0.85;;;;;;;;;;5019783;28;20021;-88
2022/05/31 00:34:36;;;;;;;1.10;1.00;;;;;;;;;;5053630;28;20041;-89
2022/05/31 00:37:02;;;;;;;1.08;0.90;;;;;;;;;;5035417;28;20028;-88
2022/05/31 00:39:27;;;;;;;1.35;1.00;;;;;;;;;;5051371;28;20024;-88
2022/05/31 00:42:08;;;;;;;1.15;0.90;;;;;;;;;;5053208;28;20124;-90
2022/05/31 00:44:36;;;;;;;1.38;0.90;;;;;;;;;;5052186;28;20025;-90
2022/05/31 00:47:03;;;;;;;0.80;0.80;;;;;;;;;;5053095;28;20108;-89
2022/05/31 00:49:35;;;;;;;1.50;0.80;;;;;;;;;;5053468;28;20504;-90
2022/05/31 00:52:06;;;;;;;0.90;0.90;;;;;;;;;;5035506;28;20083;-89
2022/05/31 00:54:35;;;;;;;1.25;1.15;;;;;;;;;;5052092;28;20021;-89
2022/05/31 00:57:00;;;;;;;0.93;0.90;;;;;;;;;;5052420;28;20110;-89
2022/05/31 00:59:33;;;;;;;1.25;1.10;;;;;;;;;;5055496;28;20029;-89
2022/05/31 01:02:00;;;;;;;0.87;0.80;;;;;;;;;;5051790;28;20045;-89
2022/05/31 01:04:33;;;;;;;1.05;0.90;;;;;;;;;;5035189;28;20393;-90
2022/05/31 01:06:59;;;;;;;3.83;1.20;;;;;;;;;;5051746;28;20039;-89
2022/05/31 01:09:25;;;;;;;0.90;0.70;;;;;;;;;;5051689;28;20033;-89
2022/05/31 01:11:50;;;;;;;0.80;0.80;;;;;;;;;;5051625;28;20017;-89
2022/05/31 01:14:16;;;;;;;0.70;0.70;;;;;;;;;;5052493;28;20036;-90
2022/05/31 01:17:05;;;;;;;2.35;0.90;;;;;;;;;;5051858;28;20029;-90
2022/05/31 01:22:16;;;;;;;1.20;0.90;;;;;;;;;;5053138;28;20079;-90
2022/05/31 01:24:45;;;;;;;0.88;0.88;;;;;;;;;;5035893;28;20476;-90
2022/05/31 01:27:31;;;;;;;0.80;0.80;;;;;;;;;;5051666;28;20472;-90
2022/05/31 01:29:57;;;;;;;1.98;1.20;;;;;;;;;;5052424;28;20115;-90
2022/05/31 01:32:22;;;;;;;0.88;0.80;;;;;;;;;;5035386;28;20420;-90
2022/05/31 01:35:00;;;;;;;1.00;0.80;;;;;;;;;;5051484;28;20040;-89
2022/05/31 01:37:34;;;;;;;1.08;0.90;;;;;;;;;;5051771;28;20036;-89
2022/05/31 01:40:00;;;;;;;;;;;;;;;;;;5035213;28;20137;-89
2022/05/31 01:42:37;;;;;;;2.20;1.00;;;;;;;;;;5054059;28;19970;-90
2022/05/31 01:45:10;;;;;;;1.88;1.00;;;;;;;;;;5043392;28;20082;-92
2022/05/31 01:47:36;;;;;;;1.67;1.20;;;;;;;;;;5052192;28;20017;-91
2022/05/31 01:50:04;;;;;;;1.98;1.10;;;;;;;;;;5035905;28;20033;-92
2022/05/31 01:52:30;;;;;;;2.25;0.90;;;;;;;;;;5052073;28;20036;-92
2022/05/31 01:54:56;;;;;;;1.20;1.10;;;;;;;;;;5053104;28;20154;-90
2022/05/31 01:57:22;;;;;;;1.15;1.02;;;;;;;;;;5055389;28;20111;-90
2022/05/31 01:59:51;;;;;;;2.47;0.90;;;;;;;;;;5022159;28;20045;-90
2022/05/31 02:02:18;;;;;;;1.85;1.25;;;;;;;;;;5038280;28;20049;-90
2022/05/31 02:04:45;;;;;;;1.50;1.10;;;;;;;;;;5054884;28;20037;-90
2022/05/31 02:07:19;;;;;;;1.17;1.05;;;;;;;;;;5055399;28;20461;-90
2022/05/31 02:09:47;;;;;;;1.23;1.05;;;;;;;;;;5038375;28;20033;-90
2022/05/31 02:12:13;;;;;;;1.10;1.02;;;;;;;;;;5054969;28;20017;-90
2022/05/31 02:14:39;;;;;;;1.00;1.00;;;;;;;;;;5038846;28;20039;-89
2022/05/31 02:17:04;;;;;;;1.20;1.00;;;;;;;;;;5038077;28;20029;-89
2022/05/31 02:19:30;;;;;;;1.33;1.13;;;;;;;;;;5040107;28;20025;-90
2022/05/31 02:21:58;;;;;;;0.95;0.93;;;;;;;;;;5038319;28;20032;-89
2022/05/31 02:24:24;;;;;;;3.47;1.17;;;;;;;;;;5055002;28;20123;-89
2022/05/31 02:26:50;;;;;;;2.15;1.00;;;;;;;;;;5054795;28;20493;-90
2022/05/31 02:29:19;;;;;;;1.20;1.00;;;;;;;;;;5054828;28;20029;-90
2022/05/31 02:31:45;;;;;;;1.20;1.10;;;;;;;;;;5038771;28;20021;-90
2022/05/31 02:34:13;;;;;;;1.23;1.13;;;;;;;;;;5037787;28;20052;-91
2022/05/31 02:36:38;;;;;;;4.28;1.00;;;;;;;;;;5038181;28;20021;-91
2022/05/31 02:39:05;;;;;;;1.20;1.00;;;;;;;;;;5056171;28;20033;-90
2022/05/31 02:41:31;;;;;;;2.28;1.35;;;;;;;;;;5021934;28;20032;-90
2022/05/31 02:43:57;;;;;;;1.42;1.27;;;;;;;;;;5055221;28;20025;-89
2022/05/31 02:46:23;;;;;;;2.15;1.20;;;;;;;;;;5055820;28;20115;-90
2022/05/31 02:48:48;;;;;;;1.00;1.00;;;;;;;;;;5037377;28;20495;-89
2022/05/31 02:51:14;;;;;;;1.80;1.10;;;;;;;;;;5054527;28;20037;-90
2022/05/31 02:53:40;;;;;;;1.48;1.10;;;;;;;;;;5038129;28;20443;-89
2022/05/31 02:56:06;;;;;;;3.33;1.17;;;;;;;;;;5053983;28;20435;-90
2022/05/31 02:58:31;;;;;;;1.60;1.13;;;;;;;;;;5054136;28;20029;-90
2022/05/31 03:00:57;;;;;;;1.33;1.23;;;;;;;;;;5053903;28;20083;-90
2022/05/31 03:03:22;;;;;;;1.35;1.10;;;;;;;;;;5037044;28;20110;-90
2022/05/31 03:05:50;;;;;;;1.48;1.20;;;;;;;;;;5021678;28;20037;-89
2022/05/31 03:08:15;;;;;;;3.50;1.20;;;;;;;;;;5055597;28;20064;-89
2022/05/31 03:10:44;;;;;;;2.03;1.02;;;;;;;;;;5053679;28;20069;-89
2022/05/31 03:13:11;;;;;;;1.42;1.05;;;;;;;;;;5054860;28;20132;-89
2022/05/31 03:15:37;;;;;;;1.13;0.93;;;;;;;;;;5036856;28;20029;-88
2022/05/31 03:18:13;;;;;;;1.48;1.10;;;;;;;;;;5036833;28;20063;-88
2022/05/31 03:20:50;;;;;;;3.45;1.15;;;;;;;;;;5053439;28;20021;-88
2022/05/31 03:23:18;;;;;;;4.95;1.48;;;;;;;;;;5053466;28;20451;-89
2022/05/31 03:25:44;;;;;;;1.00;1.00;;;;;;;;;;5054699;28;20029;-89
2022/05/31 03:28:10;;;;;;;1.65;1.30;;;;;;;;;;5053346;28;20029;-89
2022/05/31 03:30:36;;;;;;;1.23;1.02;;;;;;;;;;5036431;28;20056;-90
2022/05/31 03:33:02;;;;;;;1.33;1.00;;;;;;;;;;5053120;28;20133;-89
2022/05/31 03:35:28;;;;;;;1.48;1.10;;;;;;;;;;5036483;28;20457;-91
2022/05/31 03:37:53;;;;;;;1.23;1.10;;;;;;;;;;5055709;28;20108;-90
2022/05/31 03:43:04;;;;;;;1.20;0.98;;;;;;;;;;5053694;28;20032;-89
2022/05/31 03:45:38;;;;;;;1.30;1.20;;;;;;;;;;5054482;28;20048;-90
2022/05/31 03:48:05;;;;;;;3.30;1.40;;;;;;;;;;5053510;28;20052;-90
2022/05/31 03:50:31;;;;;;;1.25;1.15;;;;;;;;;;5036240;28;20043;-89
2022/05/31 03:52:56;;;;;;;3.90;1.20;;;;;;;;;;5036248;28;20029;-89
2022/05/31 03:55:21;;;;;;;1.73;1.17;;;;;;;;;;5054221;28;20469;-88
2022/05/31 03:57:48;;;;;;;1.73;1.20;;;;;;;;;;5019740;28;20128;-89
2022/05/31 04:00:14;;;;;;;1.63;1.17;;;;;;;;;;5036238;28;20074;-89
2022/05/31 04:02:40;;;;;;;2.20;1.30;;;;;;;;;;5052394;28;20063;-89
2022/05/31 04:05:06;;;;;;;2.63;1.27;;;;;;;;;;5053882;28;20033;-87
2022/05/31 04:07:31;;;;;;;1.15;1.05;;;;;;;;;;5052711;28;20029;-88
2022/05/31 04:09:57;;;;;;;1.30;1.20;;;;;;;;;;5036206;28;20037;-87
2022/05/31 04:12:22;;;;;;;2.53;1.40;;;;;;;;;;5036265;28;20075;-87
2022/05/31 04:14:47;;;;;;;3.58;1.38;;;;;;;;;;5067338;28;20093;-89
2022/05/31 04:17:13;;;;;;;3.75;1.77;;;;;;;;;;5076731;28;20026;-86
2022/05/31 04:19:39;;;;;;;4.55;1.30;;;;;;;;;;5042334;28;20036;-85
2022/05/31 04:22:04;;;;;;;4.32;1.70;;;;;;;;;;5054193;28;20180;-85
2022/05/31 04:24:30;;;;;;;2.95;1.58;;;;;;;;;;5053919;28;20393;-86
2022/05/31 04:26:55;;;;;;;5.22;2.00;;;;;;;;;;5052523;28;20036;-86
2022/05/31 04:29:20;;;;;;;5.15;1.75;;;;;;;;;;5041915;28;20028;-85
2022/05/31 04:31:48;;;;;;;2.95;1.42;;;;;;;;;;5054822;28;20024;-90
2022/05/31 04:34:14;;;;;;;4.55;1.70;;;;;;;;;;5056642;28;20033;-85
2022/05/31 04:36:39;;;;;;;2.30;1.33;;;;;;;;;;5054132;28;20040;-85
2022/05/31 04:39:04;;;;;;;3.60;1.52;;;;;;;;;;5052793;28;20029;-86
2022/05/31 04:41:30;;;;;;;8.40;2.00;;;;;;;;;;5053717;28;20033;-84
2022/05/31 04:43:58;;;;;;;4.55;2.10;;;;;;;;;;5051516;28;20104;-90
2022/05/31 04:46:26;;;;;;;4.95;1.83;;;;;;;;;;5035195;28;20376;-90
2022/05/31 04:48:59;;;;;;;8.90;1.75;;;;;;;;;;5051930;28;20059;-89
2022/05/31 04:51:32;;;;;;;6.13;2.08;;;;;;;;;;5040088;28;20024;-89
2022/05/31 04:53:58;;;;;;;4.07;2.30;;;;;;;;;;5056626;28;20037;-87
2022/05/31 04:56:23;;;;;;;5.95;2.03;;;;;;;;;;5052559;28;20107;-89
2022/05/31 04:58:51;;;;;;;7.35;2.58;;;;;;;;;;5034999;28;20036;-89
2022/05/31 05:01:17;;;;;;;7.30;2.83;;;;;;;;;;5052075;28;20028;-90
2022/05/31 05:03:44;;;;;;;7.80;2.60;;;;;;;;;;5035015;28;20408;-82
2022/05/31 05:06:10;;;;;;;6.45;2.50;;;;;;;;;;5051949;28;20033;-88
2022/05/31 05:08:36;;;;;;;9.50;2.80;;;;;;;;;;5052514;28;20029;-94
2022/05/31 05:11:04;;;;;;;9.57;3.05;;;;;;;;;;5054546;28;20025;-92
2022/05/31 05:13:30;;;;;;;7.95;3.00;;;;;;;;;;5038811;28;20055;-93
2022/05/31 05:15:55;;;;;;;15.13;3.33;;;;;;;;;;5037278;28;20169;-93
2022/05/31 05:18:22;;;;;;;12.93;3.63;;;;;;;;;;5055961;28;20064;-92
2022/05/31 05:20:48;;;;;;;11.27;3.28;;;;;;;;;;5039718;28;20090;-93
2022/05/31 05:23:14;;;;;;;12.88;3.60;;;;;;;;;;5049989;28;20020;-91
2022/05/31 05:25:39;;;;;;;12.27;3.53;;;;;;;;;;5051617;28;20139;-95
2022/05/31 05:30:38;;;;;;;17.08;3.28;;;;;;;;;;5038063;28;20472;-94
2022/05/31 05:30:50;;;;;;;14.88;3.10;;;;;;;;;;5046715;28;20025;-95
2022/05/31 05:33:16;;;;;;;7.07;2.75;;;;;;;;;;5043773;28;20028;-94
2022/05/31 05:35:42;;;;;;;8.43;3.13;;;;;;;;;;5059166;28;20048;-91
2022/05/31 05:38:08;;;;;;;8.40;2.85;;;;;;;;;;5059255;28;20025;-90
2022/05/31 05:40:34;;;;;;;7.70;2.55;;;;;;;;;;5059602;28;20047;-94
2022/05/31 05:43:00;;;;;;;5.63;2.40;;;;;;;;;;5024308;28;20086;-90
2022/05/31 05:45:25;;;;;;;7.05;2.53;;;;;;;;;;5058441;28;20032;-91
2022/05/31 05:47:51;;;;;;;12.18;2.53;;;;;;;;;;5028100;28;20373;-95
2022/05/31 05:50:16;;;;;;;5.18;2.25;;;;;;;;;;5050746;28;20556;-93
2022/05/31 05:52:48;;;;;;;7.47;2.90;;;;;;;;;;5031306;28;20029;-94
2022/05/31 05:55:13;;;;;;;7.03;2.67;;;;;;;;;;5058807;28;20086;-94
2022/05/31 05:57:38;;;;;;;6.53;2.45;;;;;;;;;;5041521;28;20528;-94
2022/05/31 06:00:05;;;;;;;3.17;1.95;;;;;;;;;;5042901;28;20033;-94
2022/05/31 06:02:31;;;;;;;3.88;2.20;;;;;;;;;;5026627;28;20120;-93
2022/05/31 06:05:07;;;;;;;4.78;2.30;;;;;;;;;;5058382;28;20055;-94
2022/05/31 06:07:43;;;;;;;8.38;2.97;;;;;;;;;;5060539;28;20035;-92
2022/05/31 06:10:17;;;;;;;4.50;2.13;;;;;;;;;;5047144;28;20048;-92
2022/05/31 06:12:50;;;;;;;5.75;2.28;;;;;;;;;;5064635;28;20048;-93
2022/05/31 06:15:21;;;;;;;5.22;1.90;;;;;;;;;;5050517;28;20025;-93
2022/05/31 06:17:49;;;;;;;4.38;1.85;;;;;;;;;;5044729;28;20021;-94
2022/05/31 06:20:15;;;;;;;5.53;2.22;;;;;;;;;;5026249;28;20041;-95
2022/05/31 06:22:41;;;;;;;3.10;1.90;;;;;;;;;;5041841;28;20311;-95
2022/05/31 06:25:08;;;;;;;5.78;2.22;;;;;;;;;;5041786;28;20029;-96
2022/05/31 06:27:33;;;;;;;4.47;1.88;;;;;;;;;;5030907;28;20128;-92
2022/05/31 06:29:59;;;;;;;4.10;1.80;;;;;;;;;;5057198;28;20057;-93
2022/05/31 06:32:24;;;;;;;4.57;1.90;;;;;;;;;;5056429;28;20029;-92
2022/05/31 06:34:49;;;;;;;3.10;1.80;;;;;;;;;;5055618;28;20461;-93
2022/05/31 06:37:16;;;;;;;6.18;1.95;;;;;;;;;;5037974;28;20132;-92
2022/05/31 06:39:44;;;;;;;3.58;1.70;;;;;;;;;;5038345;28;20123;-94
2022/05/31 06:42:10;;;;;;;4.03;1.83;;;;;;;;;;5039171;28;20027;-93
2022/05/31 06:44:38;;;;;;;3.30;1.70;;;;;;;;;;5056054;28;20104;-93
2022/05/31 06:47:05;;;;;;;3.90;2.03;;;;;;;;;;5040659;28;20031;-95
2022/05/31 06:49:34;;;;;;;3.72;1.83;;;;;;;;;;5038558;28;20115;-93
2022/05/31 06:57:36;;;;;;;5.80;1.75;;;;;;;;;;5041324;28;20040;-94
2022/05/31 07:00:09;;;;;;;2.33;1.40;;;;;;;;;;5040702;28;20032;-94
2022/05/31 07:02:35;;;;;;;2.83;1.70;;;;;;;;;;5042326;28;20033;-94
2022/05/31 07:05:01;;;;;;;2.50;1.38;;;;;;;;;;5054782;28;20091;-96
2022/05/31 07:07:26;;;;;;;4.15;1.70;;;;;;;;;;5049621;28;20029;-96
2022/05/31 07:09:53;;;;;;;2.10;1.63;;;;;;;;;;5051510;28;20029;-96
2022/05/31 07:12:19;;;;;;;3.03;1.50;;;;;;;;;;5053860;28;20036;-96
2022/05/31 07:14:44;;;;;;;2.30;1.45;;;;;;;;;;5055090;28;20046;-92
2022/05/31 07:17:10;;;;;;;3.25;1.63;;;;;;;;;;5040190;28;20025;-94
2022/05/31 07:19:35;;;;;;;2.63;1.50;;;;;;;;;;5038582;28;20021;-94
2022/05/31 07:22:01;;;;;;;3.30;1.80;;;;;;;;;;5023521;28;20071;-95
2022/05/31 07:24:28;;;;;;;5.97;1.80;;;;;;;;;;5041158;28;20231;-94
2022/05/31 07:26:54;;;;;;;2.40;1.50;;;;;;;;;;5043696;28;20132;-95
2022/05/31 07:29:19;;;;;;;4.07;1.80;;;;;;;;;;5057402;28;20093;-96
2022/05/31 07:31:45;;;;;;;1.80;1.30;;;;;;;;;;5057440;28;20037;-93
2022/05/31 07:34:12;;;;;;;2.30;1.38;;;;;;;;;;5045193;28;20032;-93
2022/05/31 07:36:38;;;;;;;2.95;1.70;;;;;;;;;;5054114;28;20092;-92
2022/05/31 07:39:04;;;;;;;3.13;1.58;;;;;;;;;;5036451;28;20033;-92
2022/05/31 07:41:34;;;;;;;2.40;1.70;;;;;;;;;;5038253;28;20032;-95
2022/05/31 07:44:00;;;;;;;5.72;1.60;;;;;;;;;;5031900;28;20029;-92
2022/05/31 07:46:26;;;;;;;5.10;1.80;;;;;;;;;;5038127;28;20105;-93
2022/05/31 07:48:51;;;;;;;3.25;1.90;;;;;;;;;;5055262;28;20025;-92
2022/05/31 07:51:17;;;;;;;3.60;1.55;;;;;;;;;;5039400;28;20517;-91
2022/05/31 07:53:42;;;;;;;4.55;1.80;;;;;;;;;;5062172;28;20033;-93
2022/05/31 07:56:08;;;;;;;7.10;2.33;;;;;;;;;;5038068;28;20040;-84
2022/05/31 07:58:35;;;;;;;5.25;2.20;;;;;;;;;;5035742;28;20120;-88
2022/05/31 08:01:06;;;;;;;3.50;1.63;;;;;;;;;;5052230;28;20392;-85
2022/05/31 08:03:32;;;;;;;3.20;2.00;;;;;;;;;;5035679;28;20075;-88
2022/05/31 08:06:01;;;;;;;3.42;1.45;;;;;;;;;;5052350;28;20119;-87
2022/05/31 08:08:26;;;;;;;2.97;2.22;;;;;;;;;;5035660;28;20032;-87
2022/05/31 08:10:52;;;;;;;5.22;1.88;;;;;;;;;;5052145;28;20029;-86
2022/05/31 08:13:17;;;;;;;3.10;2.03;;;;;;;;;;5056367;28;20029;-91
2022/05/31 08:15:43;;;;;;;4.85;1.95;;;;;;;;;;5021933;28;20033;-88
2022/05/31 08:18:08;;;;;;;4.28;2.22;;;;;;;;;;5035253;28;20033;-89
2022/05/31 08:20:33;;;;;;;5.07;1.90;;;;;;;;;;5053167;28;20139;-89
2022/05/31 08:23:01;;;;;;;5.28;2.22;;;;;;;;;;5035025;28;20037;-89
2022/05/31 08:25:26;;;;;;;3.58;2.17;;;;;;;;;;5052271;28;20065;-88
2022/05/31 08:27:52;;;;;;;3.08;1.88;;;;;;;;;;5052909;28;20103;-87
2022/05/31 08:30:17;;;;;;;4.95;1.73;;;;;;;;;;5052873;28;20052;-85
2022/05/31 08:32:43;;;;;;;3.58;1.60;;;;;;;;;;5051974;28;20021;-88
2022/05/31 08:35:08;;;;;;;2.90;1.60;;;;;;;;;;5055045;28;20063;-89
2022/05/31 08:37:34;;;;;;;5.28;2.25;;;;;;;;;;5057828;28;20330;-89
2022/05/31 08:40:00;;;;;;;3.25;1.70;;;;;;;;;;5054565;28;20154;-92
2022/05/31 08:42:51;;;;;;;3.22;2.20;;;;;;;;;;5037253;28;20029;-88
2022/05/31 08:45:31;;;;;;;2.80;1.40;;;;;;;;;;5052709;28;20064;-90
2022/05/31 08:48:07;;;;;;;2.20;1.50;;;;;;;;;;5051918;28;20434;-88
2022/05/31 08:56:59;;;;;;;8.85;2.60;;;;;;;;;;5052851;28;20142;-92
2022/05/31 08:59:51;;;;;;;12.50;2.78;;;;;;;;;;5037991;28;20164;-88
2022/05/31 09:02:29;;;;;;;6.00;2.40;;;;;;;;;;5022722;28;20069;-89
2022/05/31 09:05:14;;;;;;;6.00;2.00;;;;;;;;;;5014732;28;20046;-90
2022/05/31 09:07:47;;;;;;;5.03;2.05;;;;;;;;;;5031261;28;20365;-88
2022/05/31 09:10:38;;;;;;;4.65;2.45;;;;;;;;;;5014674;28;20021;-84
2022/05/31 09:13:28;;;;;;;5.70;2.03;;;;;;;;;;5032422;28;20021;-86
2022/05/31 09:15:57;;;;;;;3.97;1.80;;;;;;;;;;5032283;28;20061;-87
2022/05/31 09:18:26;;;;;;;6.60;2.00;;;;;;;;;;5032225;28;20059;-95
2022/05/31 09:20:55;;;;;;;3.75;1.67;;;;;;;;;;5035137;28;20037;-94
2022/05/31 09:23:23;;;;;;;5.63;1.73;;;;;;;;;;5046022;28;20139;-91
2022/05/31 09:25:57;;;;;;;5.05;1.77;;;;;;;;;;5034578;28;20473;-90
2022/05/31 09:28:36;;;;;;;6.00;1.60;;;;;;;;;;5052600;28;20024;-88
2022/05/31 09:31:09;;;;;;;7.25;2.05;;;;;;;;;;5054598;28;20035;-87
2022/05/31 09:33:39;;;;;;;4.40;1.88;;;;;;;;;;5058869;28;20067;-89
2022/05/31 09:36:11;;;;;;;5.80;2.10;;;;;;;;;;5072806;28;20028;-91
2022/05/31 09:38:51;;;;;;;2.38;1.50;;;;;;;;;;5053222;28;20117;-90
2022/05/31 09:41:46;;;;;;;2.08;1.60;;;;;;;;;;5035370;28;20442;-90
2022/05/31 09:44:25;;;;;;;2.97;1.50;;;;;;;;;;5035050;28;20052;-89
2022/05/31 09:47:02;;;;;;;2.85;1.50;;;;;;;;;;5051344;28;20051;-88
2022/05/31 09:49:39;;;;;;;3.58;1.80;;;;;;;;;;5034731;28;20029;-89
2022/05/31 09:52:33;;;;;;;2.90;1.58;;;;;;;;;;5051485;28;20600;-89
2022/05/31 09:57:52;;;;;;;2.55;1.50;;;;;;;;;;5054712;28;20032;-89
2022/05/31 10:00:20;;;;;;;3.03;1.60;;;;;;;;;;5058811;28;20037;-87
2022/05/31 10:03:09;;;;;;;2.75;1.70;;;;;;;;;;5039566;28;20029;-86
2022/05/31 10:05:36;;;;;;;4.22;1.50;;;;;;;;;;5053999;28;20094;-87
2022/05/31 10:08:02;;;;;;;3.17;1.65;;;;;;;;;;5053414;28;20021;-87
2022/05/31 10:10:32;;;;;;;1.75;1.33;;;;;;;;;;5055149;28;20031;-88
2022/05/31 10:13:09;;;;;;;1.73;1.30;;;;;;;;;;5053477;28;20017;-88
2022/05/31 10:15:44;;;;;;;2.45;1.45;;;;;;;;;;5053629;28;20029;-88
2022/05/31 10:18:31;;;;;;;2.88;1.60;;;;;;;;;;5055360;28;20078;-88
2022/05/31 10:21:01;;;;;;;3.60;1.58;;;;;;;;;;5055739;28;20029;-87
2022/05/31 10:23:45;;;;;;;1.48;1.33;;;;;;;;;;5055467;28;20087;-86
2022/05/31 10:26:32;;;;;;;2.33;1.52;;;;;;;;;;5054875;28;20116;-90
2022/05/31 10:29:00;;;;;;;2.03;1.60;;;;;;;;;;5037994;28;20056;-89
2022/05/31 10:31:38;;;;;;;1.65;1.50;;;;;;;;;;5039724;28;20113;-88
2022/05/31 10:34:24;;;;;;;1.60;1.40;;;;;;;;;;5056814;28;20032;-89
2022/05/31 10:36:55;;;;;;;2.10;1.30;;;;;;;;;;5056287;28;20488;-87
2022/05/31 10:39:24;;;;;;;3.55;1.50;;;;;;;;;;5055545;28;20370;-85
2022/05/31 10:41:52;;;;;;;1.75;1.45;;;;;;;;;;5054687;28;20017;-86
2022/05/31 10:44:34;;;;;;;2.67;1.38;;;;;;;;;;5038586;28;20443;-89
2022/05/31 10:47:10;;;;;;;2.38;1.52;;;;;;;;;;5054325;28;20021;-89
2022/05/31 10:49:36;;;;;;;2.25;1.40;;;;;;;;;;5054404;28;20414;-89
2022/05/31 10:52:31;;;;;;;1.88;1.30;;;;;;;;;;5037355;28;20025;-88
2022/05/31 10:55:02;;;;;;;2.10;1.45;;;;;;;;;;5037843;28;20021;-90
2022/05/31 10:57:50;;;;;;;2.67;1.45;;;;;;;;;;5040667;28;20029;-90
2022/05/31 11:00:25;;;;;;;1.67;1.40;;;;;;;;;;5043257;28;20052;-89
2022/05/31 11:02:53;;;;;;;2.10;1.30;;;;;;;;;;5063012;28;20029;-89
2022/05/31 11:05:25;;;;;;;1.25;1.17;;;;;;;;;;5062846;28;20128;-88
2022/05/31 11:13:52;;;;;;;3.10;1.52;;;;;;;;;;5060963;28;20024;-88
2022/05/31 11:16:39;;;;;;;2.35;1.63;;;;;;;;;;5062573;28;20120;-87
2022/05/31 11:19:08;;;;;;;2.67;1.35;;;;;;;;;;5059619;28;20103;-87
2022/05/31 11:21:42;;;;;;;1.77;1.58;;;;;;;;;;5061023;28;20029;-86
2022/05/31 11:24:11;;;;;;;11.05;2.63;;;;;;;;;;5061002;28;20032;-85
2022/05/31 11:26:45;;;;;;;3.83;1.65;;;;;;;;;;5058906;28;20048;-86
2022/05/31 11:29:33;;;;;;;4.35;1.40;;;;;;;;;;5059193;28;20040;-85
2022/05/31 11:32:13;;;;;;;5.57;1.13;;;;;;;;;;5059381;28;20040;-88
2022/05/31 11:34:53;;;;;;;3.17;1.48;;;;;;;;;;5058455;28;20049;-87
2022/05/31 11:37:40;;;;;;;5.57;1.50;;;;;;;;;;5058548;28;20028;-88
2022/05/31 11:40:13;;;;;;;2.70;1.70;;;;;;;;;;5058385;28;20044;-86
2022/05/31 11:43:00;;;;;;;2.80;1.60;;;;;;;;;;5068434;28;20052;-88
2022/05/31 11:45:43;;;;;;;3.47;1.60;;;;;;;;;;5067293;28;20035;-88
2022/05/31 11:48:56;;;;;;;2.30;1.35;;;;;;;;;;5060765;28;20033;-87
2022/05/31 11:51:54;;;;;;;2.13;1.30;;;;;;;;;;5039345;28;20045;-87
2022/05/31 11:54:44;;;;;;;1.58;1.30;;;;;;;;;;5057735;28;20062;-87
2022/05/31 11:57:21;;;;;;;3.28;1.42;;;;;;;;;;5057668;28;20021;-88
2022/05/31 11:59:57;;;;;;;4.20;1.40;;;;;;;;;;5058246;28;20029;-88
2022/05/31 12:02:22;;;;;;;2.38;1.40;;;;;;;;;;5056107;28;20025;-86
2022/05/31 12:04:54;;;;;;;2.97;1.60;;;;;;;;;;5057609;28;20045;-88
2022/05/31 12:07:37;;;;;;;3.88;1.38;;;;;;;;;;5040161;28;20033;-89
2022/05/31 12:10:18;;;;;;;2.10;1.60;;;;;;;;;;5055815;28;20385;-88
2022/05/31 12:12:44;;;;;;;2.22;1.13;;;;;;;;;;5039834;28;20040;-87
2022/05/31 12:15:20;;;;;;;2.22;1.55;;;;;;;;;;5022758;28;20041;-88
2022/05/31 12:18:06;;;;;;;1.30;1.20;;;;;;;;;;5059768;28;20032;-88
2022/05/31 12:20:40;;;;;;;6.68;1.50;;;;;;;;;;5059492;28;20025;-90
2022/05/31 12:23:25;;;;;;;2.47;1.52;;;;;;;;;;5041404;28;20096;-89
2022/05/31 12:25:53;;;;;;;3.70;1.50;;;;;;;;;;5056588;28;20104;-88
2022/05/31 12:28:30;;;;;;;1.63;1.40;;;;;;;;;;5055802;28;20039;-87
2022/05/31 12:30:59;;;;;;;1.48;1.20;;;;;;;;;;5056439;28;20039;-87
2022/05/31 12:33:30;;;;;;;1.83;1.40;;;;;;;;;;5058409;28;20025;-87
2022/05/31 12:35:56;;;;;;;2.45;1.23;;;;;;;;;;5040117;28;20111;-87
2022/05/31 12:38:22;;;;;;;2.28;1.50;;;;;;;;;;5056627;28;20444;-88
2022/05/31 12:40:50;;;;;;;1.80;1.23;;;;;;;;;;5039967;28;20021;-87
2022/05/31 12:43:43;;;;;;;3.22;1.40;;;;;;;;;;5039937;28;20052;-87
2022/05/31 12:46:45;;;;;;;1.50;1.40;;;;;;;;;;5063125;28;20423;-87
2022/05/31 12:49:52;;;;;;;2.83;1.50;;;;;;;;;;5058787;28;20025;-86
2022/05/31 12:55:20;;;;;;;3.13;1.20;;;;;;;;;;5053368;28;20029;-88
2022/05/31 13:00:37;;;;;;;;;;;;;;;;;;5054395;28;20094;-88
2022/05/31 13:03:30;;;;;;;1.45;1.35;;;;;;;;;;5056838;28;19912;-88
2022/05/31 13:06:05;;;;;;;3.67;1.60;;;;;;;;;;5059506;28;20037;-89
2022/05/31 13:08:48;;;;;;;2.28;1.40;;;;;;;;;;5059585;28;20099;-88
2022/05/31 13:20:11;;;;;;;2.92;1.50;;;;;;;;;;5049804;28;20044;-89
2022/05/31 13:23:06;;;;;;;6.40;1.27;;;;;;;;;;5034486;28;20421;-87
2022/05/31 13:25:44;;;;;;;2.75;1.33;;;;;;;;;;5045116;28;20064;-87
2022/05/31 13:28:22;;;;;;;3.13;1.63;;;;;;;;;;5051322;28;20028;-84
2022/05/31 13:30:49;;;;;;;5.28;1.88;;;;;;;;;;5034662;28;20025;-86
2022/05/31 13:33:19;;;;;;;3.55;1.52;;;;;;;;;;5052579;28;20108;-84
2022/05/31 13:35:45;;;;;;;3.08;1.30;;;;;;;;;;5052311;28;20021;-85
2022/05/31 13:38:19;;;;;;;2.90;1.60;;;;;;;;;;5042871;28;20110;-86
2022/05/31 13:40:49;;;;;;;3.67;1.33;;;;;;;;;;5056505;28;20025;-86
2022/05/31 13:43:22;;;;;;;2.90;1.33;;;;;;;;;;5054299;28;20465;-84
2022/05/31 13:45:52;;;;;;;1.50;1.40;;;;;;;;;;5060091;28;20036;-83
2022/05/31 13:48:22;;;;;;;1.48;1.38;;;;;;;;;;5039389;28;20037;-85
2022/05/31 13:51:19;;;;;;;1.40;1.30;;;;;;;;;;5037080;28;20037;-84
2022/05/31 13:53:45;;;;;;;1.40;1.30;;;;;;;;;;5056373;28;20039;-84
2022/05/31 13:56:16;;;;;;;3.58;1.60;;;;;;;;;;5039380;28;20029;-85
2022/05/31 13:58:42;;;;;;;2.95;1.50;;;;;;;;;;5040329;28;20033;-85
2022/05/31 14:01:41;;;;;;;3.78;1.48;;;;;;;;;;5058950;28;20029;-84
2022/05/31 14:04:13;;;;;;;2.58;1.30;;;;;;;;;;5045574;28;20515;-83
2022/05/31 14:06:41;;;;;;;2.47;1.33;;;;;;;;;;5060522;28;20104;-86
2022/05/31 14:09:10;;;;;;;1.65;1.45;;;;;;;;;;5045857;28;20100;-87
2022/05/31 14:11:46;;;;;;;4.47;1.45;;;;;;;;;;5028441;28;20059;-86
2022/05/31 14:14:23;;;;;;;3.60;1.52;;;;;;;;;;5061693;28;20098;-85
2022/05/31 14:16:48;;;;;;;2.88;1.30;;;;;;;;;;5060418;28;20025;-85
2022/05/31 14:19:18;;;;;;;3.45;1.63;;;;;;;;;;5027582;28;20053;-85
2022/05/31 14:21:45;;;;;;;7.22;1.67;;;;;;;;;;5041899;28;20029;-85
2022/05/31 14:24:12;;;;;;;5.47;1.80;;;;;;;;;;5059842;28;20025;-85
2022/05/31 14:26:39;;;;;;;6.07;2.00;;;;;;;;;;5041281;28;20031;-84
2022/05/31 14:29:17;;;;;;;5.00;1.88;;;;;;;;;;5057394;28;20039;-84
2022/05/31 14:31:48;;;;;;;3.97;1.85;;;;;;;;;;5058649;28;20044;-87
2022/05/31 14:34:22;;;;;;;2.67;1.65;;;;;;;;;;5055631;28;20036;-88
2022/05/31 14:36:49;;;;;;;4.75;1.55;;;;;;;;;;5039755;28;20443;-87
2022/05/31 14:39:17;;;;;;;3.03;1.80;;;;;;;;;;5026310;28;20029;-87
2022/05/31 14:41:43;;;;;;;4.45;2.17;;;;;;;;;;5041512;28;20033;-85
2022/05/31 14:44:33;;;;;;;3.42;1.77;;;;;;;;;;5058359;28;20039;-83
2022/05/31 14:47:26;;;;;;;3.15;1.33;;;;;;;;;;5040461;28;20087;-85
2022/05/31 14:50:01;;;;;;;4.10;1.60;;;;;;;;;;5060027;28;20068;-86
2022/05/31 14:52:42;;;;;;;6.75;1.90;;;;;;;;;;5058034;28;20024;-86
2022/05/31 14:55:26;;;;;;;3.45;1.60;;;;;;;;;;5056516;28;20025;-86
2022/05/31 15:00:46;;;;;;;5.88;1.90;;;;;;;;;;5056900;28;20405;-85
2022/05/31 15:03:24;;;;;;;4.70;1.70;;;;;;;;;;5057452;28;20057;-85
2022/05/31 15:06:01;;;;;;;3.25;1.58;;;;;;;;;;5055235;28;20095;-84
2022/05/31 15:08:35;;;;;;;1.85;1.42;;;;;;;;;;5038316;28;20055;-84
2022/05/31 15:19:28;;;;;;;2.33;1.67;;;;;;;;;;5058831;28;20029;-83
2022/05/31 15:21:53;;;;;;;2.53;1.73;;;;;;;;;;5068313;28;20025;-83
2022/05/31 15:24:25;;;;;;;5.07;2.05;;;;;;;;;;5064249;28;20037;-86
2022/05/31 15:26:51;;;;;;;5.05;2.28;;;;;;;;;;5063344;28;20103;-84
2022/05/31 15:29:16;;;;;;;5.43;2.58;;;;;;;;;;5070827;28;20074;-83
2022/05/31 15:31:42;;;;;;;6.10;2.47;;;;;;;;;;5059453;28;20087;-83
2022/05/31 15:34:07;;;;;;;2.58;2.00;;;;;;;;;;5060396;28;20017;-84
2022/05/31 15:36:34;;;;;;;4.43;2.55;;;;;;;;;;5059301;28;20021;-84
2022/05/31 15:39:00;;;;;;;3.35;2.40;;;;;;;;;;5071579;28;20021;-83
2022/05/31 15:41:28;;;;;;;3.67;2.65;;;;;;;;;;5058786;28;20032;-83
2022/05/31 15:43:57;;;;;;;4.55;2.60;;;;;;;;;;5040532;28;20469;-87
2022/05/31 15:46:25;;;;;;;4.43;2.22;;;;;;;;;;5040455;28;20122;-84
2022/05/31 15:48:51;;;;;;;3.33;2.20;;;;;;;;;;5038940;28;20028;-88
2022/05/31 15:51:21;;;;;;;3.70;2.53;;;;;;;;;;5046262;28;20082;-86
2022/05/31 15:53:47;;;;;;;7.80;2.72;;;;;;;;;;5038744;28;20469;-89
2022/05/31 15:56:13;;;;;;;3.50;2.50;;;;;;;;;;5058057;28;20027;-90